Time;durP1;ratioP1;P1;durP2;ratioP2;P2;SDS_P1;SDS_P2;PMS_P1;PMS_P2;Temp;Humidity;BMP_temperature;BMP_pressure;BME280_temperature;BME280_humidity;BME280_pressure;Samples;Min_cycle;Max_cycle;Signal;HPM_P1;HPM_P2
2021/11/14 00:01:48;;;;;;;12.98;4.85;;;9.80;99.90;;;;;;4887511;29;20458;-92
2021/11/14 00:04:14;;;;;;;12.07;4.28;;;9.80;99.90;;;;;;4865681;29;20181;-91
2021/11/14 00:06:42;;;;;;;9.40;3.58;;;9.80;99.90;;;;;;4867935;29;20032;-90
2021/11/14 00:09:09;;;;;;;11.00;3.45;;;9.80;99.90;;;;;;4886516;29;20025;-90
2021/11/14 00:11:35;;;;;;;7.07;3.42;;;9.70;99.90;;;;;;4868222;29;20033;-94
2021/11/14 00:14:01;;;;;;;11.38;3.83;;;9.80;99.90;;;;;;4879858;29;20043;-94
2021/11/14 00:16:27;;;;;;;7.30;3.25;;;9.70;99.90;;;;;;4876871;29;20048;-94
2021/11/14 00:18:54;;;;;;;9.48;3.70;;;9.70;99.90;;;;;;4867293;29;20492;-92
2021/11/14 00:21:22;;;;;;;8.50;3.20;;;9.70;99.90;;;;;;4892838;29;20052;-94
2021/11/14 00:23:48;;;;;;;9.52;3.00;;;9.70;99.90;;;;;;4893041;29;20047;-93
2021/11/14 00:26:14;;;;;;;6.88;3.60;;;9.70;99.90;;;;;;4877163;29;20032;-91
2021/11/14 00:28:42;;;;;;;10.70;3.03;;;9.70;99.90;;;;;;4891755;29;20084;-91
2021/11/14 00:31:13;;;;;;;10.32;3.33;;;9.70;99.90;;;;;;4873279;29;20476;-94
2021/11/14 00:33:42;;;;;;;9.95;3.00;;;9.70;99.90;;;;;;4873142;29;20032;-94
2021/11/14 00:36:09;;;;;;;7.72;2.53;;;9.70;99.90;;;;;;4888577;29;20029;-95
2021/11/14 00:38:36;;;;;;;4.60;2.58;;;9.70;99.90;;;;;;4876846;29;20028;-93
2021/11/14 00:41:02;;;;;;;4.70;2.25;;;9.60;99.90;;;;;;4890931;29;20028;-93
2021/11/14 00:43:27;;;;;;;11.65;3.30;;;9.60;99.90;;;;;;4889778;29;20036;-94
2021/11/14 00:45:53;;;;;;;12.60;3.10;;;9.60;99.90;;;;;;4875970;29;20029;-93
2021/11/14 00:48:19;;;;;;;8.32;3.38;;;9.60;99.90;;;;;;4892121;29;20028;-93
2021/11/14 00:50:45;;;;;;;6.15;3.28;;;9.60;99.90;;;;;;4892150;29;20077;-92
2021/11/14 00:53:13;;;;;;;10.95;2.97;;;9.60;99.90;;;;;;4888086;29;20033;-92
2021/11/14 00:55:39;;;;;;;6.10;2.75;;;9.60;99.90;;;;;;4872871;29;20456;-92
2021/11/14 00:58:04;;;;;;;12.43;3.20;;;9.60;99.90;;;;;;4872905;29;20041;-92
2021/11/14 01:00:32;;;;;;;8.57;3.20;;;9.60;99.90;;;;;;4888856;29;20021;-93
2021/11/14 01:02:58;;;;;;;14.68;4.43;;;9.60;99.90;;;;;;4892001;29;20108;-92
2021/11/14 01:05:25;;;;;;;8.77;2.97;;;9.50;99.90;;;;;;4870267;29;20021;-92
2021/11/14 01:07:51;;;;;;;6.95;2.80;;;9.50;99.90;;;;;;4885464;29;20063;-92
2021/11/14 01:10:26;;;;;;;10.00;3.35;;;9.50;99.90;;;;;;4873522;29;20016;-93
2021/11/14 01:12:51;;;;;;;15.48;4.28;;;9.50;99.90;;;;;;4885236;29;20033;-93
2021/11/14 01:15:18;;;;;;;10.50;4.13;;;9.50;99.90;;;;;;4873358;29;20032;-93
2021/11/14 01:17:44;;;;;;;7.35;2.53;;;9.50;99.90;;;;;;4890265;29;20048;-92
2021/11/14 01:20:12;;;;;;;8.52;2.85;;;9.50;99.90;;;;;;4890646;29;20048;-91
2021/11/14 01:22:39;;;;;;;10.35;2.70;;;9.40;99.90;;;;;;4888401;29;20032;-92
2021/11/14 01:25:07;;;;;;;8.90;2.97;;;9.40;99.90;;;;;;4888440;29;20031;-92
2021/11/14 01:27:32;;;;;;;5.10;2.40;;;9.40;99.90;;;;;;4887735;29;20033;-91
2021/11/14 01:29:58;;;;;;;8.75;2.70;;;9.40;99.90;;;;;;4872407;29;20134;-92
2021/11/14 01:32:24;;;;;;;5.30;2.40;;;9.30;99.90;;;;;;4889175;29;20021;-92
2021/11/14 01:34:49;;;;;;;9.25;2.42;;;9.30;99.90;;;;;;4890019;29;20119;-92
2021/11/14 01:37:15;;;;;;;6.00;1.90;;;9.30;99.90;;;;;;4873324;29;20030;-92
2021/11/14 01:39:41;;;;;;;7.65;2.00;;;9.30;99.90;;;;;;4890264;29;20040;-91
2021/11/14 01:42:07;;;;;;;7.50;2.22;;;9.30;99.90;;;;;;4891928;29;20023;-92
2021/11/14 01:44:32;;;;;;;5.97;1.90;;;9.30;99.90;;;;;;4889608;29;20038;-93
2021/11/14 01:46:58;;;;;;;4.80;2.15;;;9.30;99.90;;;;;;4872940;29;20025;-92
2021/11/14 01:49:24;;;;;;;4.63;1.73;;;9.20;99.90;;;;;;4888976;29;20497;-92
2021/11/14 01:51:50;;;;;;;15.55;4.03;;;9.20;99.90;;;;;;4890890;29;20033;-91
2021/11/14 01:54:19;;;;;;;4.82;1.77;;;9.10;99.90;;;;;;4870687;29;20265;-93
2021/11/14 01:56:46;;;;;;;5.20;1.50;;;9.10;99.90;;;;;;4889362;29;20343;-92
2021/11/14 01:59:12;;;;;;;6.13;1.60;;;9.00;99.90;;;;;;4875209;29;20033;-91
2021/11/14 02:01:38;;;;;;;10.13;2.10;;;9.00;99.90;;;;;;4891749;29;20061;-92
2021/11/14 02:04:06;;;;;;;5.03;2.10;;;8.90;99.90;;;;;;4891018;29;20044;-91
2021/11/14 02:06:34;;;;;;;14.25;2.08;;;8.90;99.90;;;;;;4890508;29;20108;-92
2021/11/14 02:09:04;;;;;;;5.90;1.83;;;8.80;99.90;;;;;;4872090;29;20033;-92
2021/11/14 02:11:30;;;;;;;3.53;1.80;;;8.80;99.90;;;;;;4875742;29;20028;-92
2021/11/14 02:13:56;;;;;;;4.28;2.00;;;8.80;99.90;;;;;;4901009;29;20040;-93
2021/11/14 02:16:26;;;;;;;8.88;2.28;;;8.80;99.90;;;;;;4889498;29;20029;-93
2021/11/14 02:18:52;;;;;;;4.77;3.13;;;8.80;99.90;;;;;;4887893;29;20088;-93
2021/11/14 02:21:20;;;;;;;6.75;2.13;;;8.80;99.90;;;;;;4873676;29;20140;-91
2021/11/14 02:23:46;;;;;;;7.50;2.47;;;8.80;99.90;;;;;;4873965;29;20032;-93
2021/11/14 02:26:13;;;;;;;9.68;3.08;;;8.70;99.90;;;;;;4890998;29;20450;-92
2021/11/14 02:28:38;;;;;;;9.30;2.70;;;8.70;99.90;;;;;;4889327;29;20033;-93
2021/11/14 02:31:05;;;;;;;7.63;3.08;;;8.70;99.90;;;;;;4888173;29;20031;-91
2021/11/14 02:33:31;;;;;;;8.07;3.30;;;8.60;99.90;;;;;;4887108;29;20043;-92
2021/11/14 02:36:00;;;;;;;8.60;3.15;;;8.60;99.90;;;;;;4874348;29;20107;-92
2021/11/14 02:38:27;;;;;;;11.60;2.72;;;8.60;99.90;;;;;;4868526;29;20066;-91
2021/11/14 02:40:53;;;;;;;4.50;2.10;;;8.50;99.90;;;;;;4886920;29;20050;-93
2021/11/14 02:43:20;;;;;;;11.68;3.05;;;8.50;99.90;;;;;;4890049;29;20043;-93
2021/11/14 02:45:47;;;;;;;11.88;3.00;;;8.50;99.90;;;;;;4887480;29;20088;-92
2021/11/14 02:48:14;;;;;;;10.35;2.75;;;8.40;99.90;;;;;;4887670;29;20064;-92
2021/11/14 02:50:42;;;;;;;6.47;3.20;;;8.40;99.90;;;;;;4871677;29;20115;-91
2021/11/14 02:53:09;;;;;;;8.57;2.42;;;8.30;99.90;;;;;;4889478;29;20057;-92
2021/11/14 02:55:35;;;;;;;7.15;2.50;;;8.30;99.90;;;;;;4888297;29;20017;-91
2021/11/14 02:58:02;;;;;;;9.63;2.45;;;8.20;99.90;;;;;;4887743;29;20025;-93
2021/11/14 03:00:32;;;;;;;4.97;2.33;;;8.20;99.90;;;;;;4888555;29;20029;-91
2021/11/14 03:02:58;;;;;;;6.25;1.95;;;8.20;99.90;;;;;;4870064;29;20033;-92
2021/11/14 03:05:24;;;;;;;4.57;1.80;;;8.20;99.90;;;;;;4889196;29;20570;-91
2021/11/14 03:07:51;;;;;;;10.05;2.38;;;8.10;99.90;;;;;;4889424;29;20063;-92
2021/11/14 03:10:20;;;;;;;6.47;2.45;;;8.10;99.90;;;;;;4873367;29;20483;-92
2021/11/14 03:12:58;;;;;;;7.15;2.13;;;8.00;99.90;;;;;;4875886;29;20112;-92
2021/11/14 03:15:25;;;;;;;4.82;1.95;;;8.00;99.90;;;;;;4890122;29;20104;-93
2021/11/14 03:17:51;;;;;;;4.47;2.10;;;8.00;99.90;;;;;;4879983;29;20017;-92
2021/11/14 03:20:18;;;;;;;5.85;3.47;;;8.00;99.90;;;;;;4890952;29;20125;-93
2021/11/14 03:22:43;;;;;;;8.57;3.08;;;8.00;99.90;;;;;;4893135;29;20064;-92
2021/11/14 03:25:09;;;;;;;6.22;2.47;;;7.90;99.90;;;;;;4873001;29;20037;-92
2021/11/14 03:27:35;;;;;;;5.00;2.40;;;8.00;99.90;;;;;;4874152;29;20375;-93
2021/11/14 03:30:01;;;;;;;8.23;2.67;;;8.10;99.90;;;;;;4891061;29;20506;-93
2021/11/14 03:32:27;;;;;;;10.13;2.88;;;8.10;99.90;;;;;;4873095;29;20490;-93
2021/11/14 03:34:53;;;;;;;9.80;2.92;;;8.10;99.90;;;;;;4888265;29;20503;-92
2021/11/14 03:37:21;;;;;;;9.43;3.10;;;8.20;99.90;;;;;;4886359;29;20028;-93
2021/11/14 03:39:47;;;;;;;5.70;2.55;;;8.20;99.90;;;;;;4889130;29;20108;-92
2021/11/14 03:42:13;;;;;;;8.13;2.90;;;8.20;99.90;;;;;;4887296;29;20029;-92
2021/11/14 03:44:40;;;;;;;7.65;3.17;;;8.10;99.90;;;;;;4890185;29;20391;-93
2021/11/14 03:47:06;;;;;;;7.75;2.65;;;8.10;99.90;;;;;;4892346;29;20033;-92
2021/11/14 03:49:33;;;;;;;6.30;2.78;;;8.10;99.90;;;;;;4892490;29;20081;-91
2021/11/14 03:51:59;;;;;;;7.03;2.67;;;8.10;99.90;;;;;;4887786;29;20036;-90
2021/11/14 03:54:25;;;;;;;3.05;2.03;;;8.10;99.90;;;;;;4870500;29;20037;-92
2021/11/14 03:56:50;;;;;;;17.65;3.35;;;8.00;99.90;;;;;;4872265;29;20442;-91
2021/11/14 03:59:16;;;;;;;3.95;2.10;;;8.00;99.90;;;;;;4886684;29;20028;-92
2021/11/14 04:01:43;;;;;;;4.80;2.88;;;7.90;99.90;;;;;;4890529;29;20025;-92
2021/11/14 04:04:08;;;;;;;2.85;1.95;;;7.90;99.90;;;;;;4881326;29;20112;-93
2021/11/14 04:06:34;;;;;;;6.97;2.40;;;7.80;99.90;;;;;;4881732;29;20047;-92
2021/11/14 04:09:00;;;;;;;9.30;3.70;;;7.70;99.90;;;;;;4905323;29;20036;-92
2021/11/14 04:11:25;;;;;;;15.35;3.50;;;7.70;99.90;;;;;;4905105;29;20522;-92
2021/11/14 04:13:53;;;;;;;8.50;3.05;;;7.50;99.90;;;;;;4884699;29;20033;-92
2021/11/14 04:16:19;;;;;;;9.88;3.05;;;7.50;99.90;;;;;;4894490;29;20112;-91
2021/11/14 04:18:45;;;;;;;11.68;3.45;;;7.40;99.90;;;;;;4890405;29;20045;-91
2021/11/14 04:21:11;;;;;;;10.00;3.28;;;7.30;99.90;;;;;;4873523;29;20116;-91
2021/11/14 04:23:38;;;;;;;6.47;3.15;;;7.30;99.90;;;;;;4891488;29;20048;-91
2021/11/14 04:26:05;;;;;;;8.85;2.92;;;7.20;99.90;;;;;;4875069;29;20017;-91
2021/11/14 04:28:31;;;;;;;6.47;2.95;;;7.30;99.90;;;;;;4889845;29;20099;-91
2021/11/14 04:30:57;;;;;;;7.50;3.25;;;7.30;99.90;;;;;;4895703;29;20103;-91
2021/11/14 04:33:22;;;;;;;13.82;2.80;;;7.30;99.90;;;;;;4890255;29;20137;-93
2021/11/14 04:35:49;;;;;;;8.10;3.70;;;7.30;99.90;;;;;;4876016;29;20450;-91
2021/11/14 04:38:15;;;;;;;8.13;3.17;;;7.30;99.90;;;;;;4889155;29;20031;-93
2021/11/14 04:40:42;;;;;;;10.40;3.58;;;7.30;99.90;;;;;;4888736;29;20036;-93
2021/11/14 04:43:11;;;;;;;8.98;3.35;;;7.30;99.90;;;;;;4891015;29;20371;-91
2021/11/14 04:45:37;;;;;;;9.82;3.35;;;7.40;99.90;;;;;;4876459;29;20029;-92
2021/11/14 04:48:05;;;;;;;11.75;3.75;;;7.40;99.90;;;;;;4889721;29;20040;-91
2021/11/14 04:50:31;;;;;;;9.15;4.15;;;7.40;99.90;;;;;;4891776;29;20037;-92
2021/11/14 04:52:57;;;;;;;10.18;3.80;;;7.50;99.90;;;;;;4890162;29;20044;-92
2021/11/14 04:55:23;;;;;;;10.80;3.75;;;7.50;99.90;;;;;;4873451;29;20056;-92
2021/11/14 04:57:52;;;;;;;12.63;4.38;;;7.60;99.90;;;;;;4874875;29;20517;-92
2021/11/14 05:00:27;;;;;;;14.75;4.63;;;7.60;99.90;;;;;;4890226;29;20081;-90
2021/11/14 05:02:53;;;;;;;15.07;4.85;;;7.70;99.90;;;;;;4889206;29;20104;-92
2021/11/14 05:05:19;;;;;;;12.50;4.57;;;7.70;99.90;;;;;;4889958;29;20104;-90
2021/11/14 05:07:44;;;;;;;17.63;5.00;;;7.80;99.90;;;;;;4872090;29;20036;-91
2021/11/14 05:10:10;;;;;;;15.15;5.15;;;7.80;99.90;;;;;;4872357;29;20451;-91
2021/11/14 05:12:36;;;;;;;14.60;5.57;;;7.80;99.90;;;;;;4875172;29;20031;-92
2021/11/14 05:15:03;;;;;;;9.57;4.40;;;7.90;99.90;;;;;;4889356;29;20041;-91
2021/11/14 05:17:29;;;;;;;12.52;4.82;;;7.90;99.90;;;;;;4874948;29;20029;-91
2021/11/14 05:19:55;;;;;;;15.25;4.35;;;7.90;99.90;;;;;;4875605;29;20053;-91
2021/11/14 05:22:20;;;;;;;11.13;4.45;;;7.90;99.90;;;;;;4905863;29;20013;-91
2021/11/14 05:24:46;;;;;;;13.50;4.30;;;7.90;99.90;;;;;;4872696;29;20040;-91
2021/11/14 05:27:12;;;;;;;10.80;4.40;;;8.00;99.90;;;;;;4872450;29;20021;-91
2021/11/14 05:29:38;;;;;;;14.07;4.15;;;8.00;99.90;;;;;;4873949;29;20043;-92
2021/11/14 05:32:04;;;;;;;17.42;4.40;;;8.00;99.90;;;;;;4890303;29;20100;-92
2021/11/14 05:34:30;;;;;;;14.82;4.35;;;8.00;99.90;;;;;;4871729;29;20517;-92
2021/11/14 05:36:56;;;;;;;10.90;3.92;;;8.00;99.90;;;;;;4872652;29;20057;-92
2021/11/14 05:39:21;;;;;;;12.85;4.25;;;8.00;99.90;;;;;;4874821;29;20146;-91
2021/11/14 05:41:47;;;;;;;11.35;4.25;;;8.10;99.90;;;;;;4888930;29;20029;-93
2021/11/14 05:44:14;;;;;;;12.13;3.70;;;8.10;99.90;;;;;;4874073;29;20546;-91
2021/11/14 05:46:40;;;;;;;8.18;3.33;;;8.00;99.90;;;;;;4872848;29;20471;-92
2021/11/14 05:49:08;;;;;;;14.55;5.45;;;8.00;99.90;;;;;;4872125;29;20058;-90
2021/11/14 05:51:38;;;;;;;15.18;4.07;;;8.00;99.90;;;;;;4888913;29;20013;-90
2021/11/14 05:54:04;;;;;;;9.68;4.40;;;8.00;99.90;;;;;;4888507;29;20097;-92
2021/11/14 05:56:30;;;;;;;10.07;3.88;;;8.00;99.90;;;;;;4871831;29;20123;-92
2021/11/14 05:59:09;;;;;;;12.50;3.72;;;8.00;99.90;;;;;;4872079;29;20104;-90
2021/11/14 06:01:45;;;;;;;15.70;5.18;;;7.90;99.90;;;;;;4888714;29;20045;-92
2021/11/14 06:06:36;;;;;;;20.15;5.32;;;8.00;99.90;;;;;;4891289;29;20043;-92
2021/11/14 06:09:02;;;;;;;11.32;6.07;;;8.00;99.90;;;;;;4891031;29;20032;-93
2021/11/14 06:11:28;;;;;;;14.43;5.35;;;8.00;99.90;;;;;;4889855;29;20029;-92
2021/11/14 06:13:54;;;;;;;14.23;5.45;;;8.00;99.90;;;;;;4881984;29;20047;-92
2021/11/14 06:16:20;;;;;;;10.35;5.68;;;8.10;99.90;;;;;;4881443;29;20490;-91
2021/11/14 06:18:46;;;;;;;14.18;5.15;;;8.10;99.90;;;;;;4877727;29;20059;-93
2021/11/14 06:21:12;;;;;;;20.50;6.30;;;8.10;99.90;;;;;;4876319;29;20045;-91
2021/11/14 06:23:38;;;;;;;10.85;4.35;;;8.10;99.90;;;;;;4886234;29;20092;-91
2021/11/14 06:26:04;;;;;;;12.55;5.15;;;8.10;99.90;;;;;;4885417;29;20589;-92
2021/11/14 06:28:30;;;;;;;12.68;5.45;;;8.10;99.90;;;;;;4866952;29;20025;-92
2021/11/14 06:30:56;;;;;;;14.93;5.55;;;8.10;99.90;;;;;;4886005;29;20025;-91
2021/11/14 06:33:22;;;;;;;13.25;5.15;;;8.10;99.90;;;;;;4882718;29;20097;-93
2021/11/14 06:35:47;;;;;;;16.52;5.55;;;8.10;99.90;;;;;;4887643;29;20116;-91
2021/11/14 06:38:13;;;;;;;11.00;5.53;;;8.10;99.90;;;;;;4874212;29;20458;-91
2021/11/14 06:40:39;;;;;;;12.10;5.47;;;8.10;99.90;;;;;;4892148;29;20032;-92
2021/11/14 06:43:04;;;;;;;15.75;5.32;;;8.10;99.90;;;;;;4885886;29;20025;-90
2021/11/14 06:45:30;;;;;;;19.55;5.47;;;8.10;99.90;;;;;;4887115;29;20108;-91
2021/11/14 06:47:56;;;;;;;14.10;4.70;;;8.20;99.90;;;;;;4888348;29;20441;-92
2021/11/14 06:50:21;;;;;;;13.00;4.78;;;8.20;99.90;;;;;;4868541;29;20527;-92
2021/11/14 06:52:47;;;;;;;16.15;5.57;;;8.20;99.90;;;;;;4874640;29;20028;-91
2021/11/14 06:55:15;;;;;;;11.18;4.15;;;8.30;99.90;;;;;;4889337;29;20056;-91
2021/11/14 06:57:41;;;;;;;13.77;4.55;;;8.20;99.90;;;;;;4881834;29;20407;-91
2021/11/14 07:00:10;;;;;;;9.23;3.92;;;8.20;99.90;;;;;;4870459;29;20032;-92
2021/11/14 07:02:36;;;;;;;11.25;4.40;;;8.20;99.90;;;;;;4877254;29;20037;-91
2021/11/14 07:05:01;;;;;;;8.48;3.35;;;8.30;99.90;;;;;;4887923;29;20100;-91
2021/11/14 07:07:27;;;;;;;8.95;3.78;;;8.30;99.90;;;;;;4871638;29;20790;-92
2021/11/14 07:09:53;;;;;;;10.18;3.30;;;8.20;99.90;;;;;;4892502;29;20498;-95
2021/11/14 07:12:21;;;;;;;9.10;4.07;;;8.30;99.90;;;;;;4881140;29;20395;-93
2021/11/14 07:14:46;;;;;;;8.57;3.58;;;8.30;99.90;;;;;;4875718;29;20044;-90
2021/11/14 07:17:12;;;;;;;19.30;4.70;;;8.30;99.90;;;;;;4872446;29;20376;-91
2021/11/14 07:19:37;;;;;;;7.72;3.75;;;8.40;99.90;;;;;;4888008;29;20518;-90
2021/11/14 07:22:04;;;;;;;10.52;3.90;;;8.40;99.90;;;;;;4869669;29;20035;-93
2021/11/14 07:24:29;;;;;;;13.80;4.30;;;8.50;99.90;;;;;;4870797;29;20036;-93
2021/11/14 07:26:55;;;;;;;13.07;5.05;;;8.50;99.90;;;;;;4869998;29;20029;-92
2021/11/14 07:29:21;;;;;;;13.27;4.60;;;8.50;99.90;;;;;;4887303;29;20510;-94
2021/11/14 07:31:46;;;;;;;15.60;5.50;;;8.60;99.90;;;;;;4888692;29;20028;-91
2021/11/14 07:34:12;;;;;;;13.05;6.53;;;8.60;99.90;;;;;;4864768;29;20406;-93
2021/11/14 07:36:38;;;;;;;8.75;4.22;;;8.70;99.90;;;;;;4868066;29;20104;-94
2021/11/14 07:39:04;;;;;;;10.90;4.00;;;8.70;99.90;;;;;;4895111;29;20051;-91
2021/11/14 07:41:29;;;;;;;14.48;5.60;;;8.70;99.90;;;;;;4893969;29;20061;-91
2021/11/14 07:43:55;;;;;;;7.82;3.63;;;8.70;99.90;;;;;;4893031;29;20382;-91
2021/11/14 07:46:21;;;;;;;15.80;8.00;;;8.70;99.90;;;;;;4874371;29;20029;-94
2021/11/14 07:48:47;;;;;;;12.45;6.40;;;8.70;99.90;;;;;;4886159;29;20032;-94
2021/11/14 07:51:12;;;;;;;13.20;6.32;;;8.80;99.90;;;;;;4878107;29;20039;-94
2021/11/14 07:53:38;;;;;;;11.35;5.57;;;8.80;99.90;;;;;;4870553;29;20093;-92
2021/11/14 07:56:04;;;;;;;16.45;6.35;;;8.80;99.90;;;;;;4885499;29;20024;-93
2021/11/14 07:58:30;;;;;;;12.73;5.97;;;8.80;99.90;;;;;;4890084;29;20032;-91
2021/11/14 08:00:56;;;;;;;22.15;8.75;;;8.80;99.90;;;;;;4873530;29;20112;-93
2021/11/14 08:03:23;;;;;;;12.02;5.57;;;8.80;99.90;;;;;;4871852;29;20056;-93
2021/11/14 08:05:49;;;;;;;14.52;5.28;;;8.90;99.90;;;;;;4873472;29;20505;-92
2021/11/14 08:08:15;;;;;;;14.45;6.95;;;8.90;99.90;;;;;;4872090;29;20107;-92
2021/11/14 08:10:41;;;;;;;10.65;5.85;;;8.90;99.90;;;;;;4890145;29;20025;-89
2021/11/14 08:13:07;;;;;;;13.70;6.90;;;8.90;99.90;;;;;;4888322;29;20025;-92
2021/11/14 08:15:35;;;;;;;22.45;9.70;;;8.90;99.90;;;;;;4887919;29;20487;-95
2021/11/14 08:18:01;;;;;;;19.85;9.77;;;8.90;99.90;;;;;;4892478;29;20112;-93
2021/11/14 08:20:27;;;;;;;11.85;5.35;;;9.00;99.90;;;;;;4892319;29;20052;-93
2021/11/14 08:22:59;;;;;;;16.85;8.35;;;9.00;99.90;;;;;;4889497;29;20367;-93
2021/11/14 08:25:26;;;;;;;19.48;8.05;;;9.00;99.90;;;;;;4892051;29;20399;-92
2021/11/14 08:27:51;;;;;;;20.15;8.27;;;9.00;99.90;;;;;;4873076;29;20102;-93
2021/11/14 08:30:17;;;;;;;14.95;6.47;;;9.00;99.90;;;;;;4896725;29;20029;-93
2021/11/14 08:32:43;;;;;;;20.15;8.00;;;9.10;99.90;;;;;;4899262;29;20054;-95
2021/11/14 08:35:09;;;;;;;17.20;8.10;;;9.10;99.90;;;;;;4873533;29;20066;-94
2021/11/14 08:37:36;;;;;;;20.85;9.68;;;9.10;99.90;;;;;;4892034;29;20028;-93
2021/11/14 08:40:04;;;;;;;15.45;7.32;;;9.10;99.90;;;;;;4891431;29;20028;-91
2021/11/14 08:42:30;;;;;;;14.52;5.95;;;9.20;99.90;;;;;;4892391;29;20017;-94
2021/11/14 08:44:56;;;;;;;15.15;7.30;;;9.20;99.90;;;;;;4892074;29;20033;-90
2021/11/14 08:47:21;;;;;;;13.75;7.05;;;9.20;99.90;;;;;;4875859;29;20047;-92
2021/11/14 08:49:47;;;;;;;19.95;8.38;;;9.30;99.90;;;;;;4890014;29;20032;-92
2021/11/14 08:52:13;;;;;;;13.25;7.75;;;9.30;99.90;;;;;;4888544;29;20514;-93
2021/11/14 08:54:38;;;;;;;18.13;7.95;;;9.30;99.90;;;;;;4877771;29;20051;-92
2021/11/14 08:57:05;;;;;;;22.73;9.90;;;9.30;99.90;;;;;;4897416;29;20459;-91
2021/11/14 08:59:31;;;;;;;19.95;8.95;;;9.40;99.90;;;;;;4892686;29;20032;-92
2021/11/14 09:01:58;;;;;;;19.70;8.80;;;9.40;99.90;;;;;;4894953;29;20061;-93
2021/11/14 09:04:24;;;;;;;17.45;8.82;;;9.50;99.90;;;;;;4891942;29;20534;-93
2021/11/14 09:06:50;;;;;;;18.73;9.27;;;9.50;99.90;;;;;;4877115;29;20028;-94
2021/11/14 09:09:15;;;;;;;25.60;9.40;;;9.50;99.90;;;;;;4889974;29;20112;-93
2021/11/14 09:11:45;;;;;;;22.23;9.48;;;9.50;99.90;;;;;;4892346;29;20035;-93
2021/11/14 09:14:11;;;;;;;19.85;8.18;;;9.50;99.90;;;;;;4898596;29;20470;-94
2021/11/14 09:16:37;;;;;;;18.95;9.50;;;9.60;99.90;;;;;;4879001;29;20120;-94
2021/11/14 09:19:05;;;;;;;20.23;10.52;;;9.60;99.90;;;;;;4881810;29;20060;-94
2021/11/14 09:21:32;;;;;;;21.88;8.88;;;9.60;99.90;;;;;;4875465;29;20081;-94
2021/11/14 09:23:57;;;;;;;18.85;10.30;;;9.60;99.90;;;;;;4869786;29;20056;-95
2021/11/14 09:26:23;;;;;;;19.02;9.38;;;9.70;99.90;;;;;;4868318;29;20028;-94
2021/11/14 09:28:49;;;;;;;18.40;10.00;;;9.70;99.90;;;;;;4875264;29;20097;-95
2021/11/14 09:31:14;;;;;;;21.70;10.77;;;9.70;99.90;;;;;;4868204;29;20480;-95
2021/11/14 09:33:40;;;;;;;23.42;11.63;;;9.80;99.90;;;;;;4869511;29;20040;-94
2021/11/14 09:36:07;;;;;;;24.33;11.63;;;9.80;99.90;;;;;;4884902;29;20033;-95
2021/11/14 09:38:34;;;;;;;24.05;12.23;;;9.80;99.90;;;;;;4884926;29;20040;-94
2021/11/14 09:41:05;;;;;;;25.92;11.82;;;9.80;99.90;;;;;;4884917;29;20028;-95
2021/11/14 09:43:31;;;;;;;26.63;12.60;;;9.90;99.90;;;;;;4884911;29;20050;-94
2021/11/14 09:45:58;;;;;;;24.08;11.70;;;9.90;99.90;;;;;;4884427;29;20033;-94
2021/11/14 09:48:23;;;;;;;24.05;10.00;;;9.90;99.90;;;;;;4900771;29;20139;-94
2021/11/14 09:50:51;;;;;;;23.55;10.60;;;9.90;99.90;;;;;;4900536;29;20063;-95
2021/11/14 09:53:18;;;;;;;24.30;9.93;;;9.90;99.90;;;;;;4884696;29;20115;-94
2021/11/14 09:55:43;;;;;;;19.23;9.60;;;9.90;99.90;;;;;;4899320;29;20036;-94
2021/11/14 09:58:09;;;;;;;25.92;11.05;;;9.90;99.90;;;;;;4893349;29;20033;-93
2021/11/14 10:00:38;;;;;;;22.88;10.00;;;9.90;99.90;;;;;;4874952;29;20440;-94
2021/11/14 10:03:05;;;;;;;24.95;9.60;;;10.00;99.90;;;;;;4884172;29;20025;-94
2021/11/14 10:05:31;;;;;;;19.75;9.55;;;9.90;99.90;;;;;;4888030;29;20084;-95
2021/11/14 10:08:05;;;;;;;19.15;8.35;;;10.00;99.90;;;;;;4874226;29;20487;-95
2021/11/14 10:10:44;;;;;;;21.08;9.35;;;10.00;99.90;;;;;;4893294;29;20038;-94
2021/11/14 10:13:18;;;;;;;15.70;8.38;;;10.00;99.90;;;;;;4875164;29;20063;-93
2021/11/14 10:15:46;;;;;;;20.92;8.52;;;10.00;99.90;;;;;;4873134;29;20028;-92
2021/11/14 10:18:12;;;;;;;17.05;7.38;;;10.00;99.90;;;;;;4877307;29;20115;-93
2021/11/14 10:20:38;;;;;;;16.15;7.28;;;10.00;99.90;;;;;;4898287;29;20140;-94
2021/11/14 10:23:12;;;;;;;14.10;7.25;;;10.00;99.90;;;;;;4897827;29;20028;-93
2021/11/14 10:25:39;;;;;;;12.45;6.20;;;10.00;99.90;;;;;;4881328;29;20032;-94
2021/11/14 10:28:08;;;;;;;15.38;7.40;;;10.00;99.90;;;;;;4881650;29;20024;-93
2021/11/14 10:30:38;;;;;;;17.08;7.78;;;10.00;99.90;;;;;;4895033;29;20107;-94
2021/11/14 10:33:08;;;;;;;14.60;6.78;;;10.00;99.90;;;;;;4885304;29;20029;-94
2021/11/14 10:35:39;;;;;;;16.17;7.82;;;10.10;99.90;;;;;;4883488;29;20037;-93
2021/11/14 10:38:12;;;;;;;19.17;8.38;;;10.00;99.90;;;;;;4881461;29;20040;-94
2021/11/14 10:40:45;;;;;;;17.60;6.90;;;10.00;99.90;;;;;;4873829;29;20071;-94
2021/11/14 10:43:12;;;;;;;16.50;7.53;;;10.10;99.90;;;;;;4887784;29;20024;-94
2021/11/14 10:45:40;;;;;;;17.55;7.03;;;10.10;99.90;;;;;;4894865;29;20029;-93
2021/11/14 10:48:09;;;;;;;17.27;9.15;;;10.10;99.90;;;;;;4871331;29;20036;-94
2021/11/14 10:50:40;;;;;;;20.80;8.07;;;10.10;99.90;;;;;;4871640;29;20112;-94
2021/11/14 10:53:12;;;;;;;16.85;9.30;;;10.20;99.90;;;;;;4888378;29;20035;-95
2021/11/14 10:55:43;;;;;;;15.95;7.72;;;10.30;99.90;;;;;;4883565;29;20535;-93
2021/11/14 10:58:10;;;;;;;19.73;8.75;;;10.30;99.90;;;;;;4863332;29;20544;-94
2021/11/14 11:00:38;;;;;;;23.17;9.00;;;10.40;99.90;;;;;;4880716;29;20041;-93
2021/11/14 11:03:05;;;;;;;20.23;8.68;;;10.50;99.90;;;;;;4882349;29;20031;-93
2021/11/14 11:05:32;;;;;;;18.65;8.88;;;10.50;99.90;;;;;;4887881;29;20024;-93
2021/11/14 11:08:02;;;;;;;17.42;8.70;;;10.60;99.90;;;;;;4872716;29;20440;-95
2021/11/14 11:10:36;;;;;;;20.30;9.13;;;10.70;99.90;;;;;;4872772;29;20024;-94
2021/11/14 11:13:09;;;;;;;16.15;8.07;;;10.70;99.90;;;;;;4885817;29;20029;-92
2021/11/14 11:15:48;;;;;;;15.55;8.35;;;10.70;99.90;;;;;;4870543;29;20093;-96
2021/11/14 11:18:16;;;;;;;20.92;10.13;;;10.80;99.90;;;;;;4871687;29;20116;-94
2021/11/14 11:20:44;;;;;;;15.77;8.80;;;10.90;99.90;;;;;;4882068;29;20091;-94
2021/11/14 11:23:15;;;;;;;23.02;10.43;;;10.90;99.90;;;;;;4878937;29;20728;-93
2021/11/14 11:25:44;;;;;;;25.23;11.48;;;11.00;99.90;;;;;;4880560;29;20088;-95
2021/11/14 11:28:19;;;;;;;24.95;11.32;;;11.00;99.90;;;;;;4880712;29;20040;-95
2021/11/14 11:31:09;;;;;;;26.58;11.10;;;10.90;99.90;;;;;;4895651;29;20506;-95
2021/11/14 11:33:38;;;;;;;24.48;11.15;;;10.80;99.90;;;;;;4877317;29;20033;-95
2021/11/14 11:36:07;;;;;;;21.98;11.88;;;10.80;99.90;;;;;;4895127;29;20032;-94
2021/11/14 11:38:35;;;;;;;21.02;11.68;;;10.90;99.90;;;;;;4880499;29;20085;-94
2021/11/14 11:41:03;;;;;;;21.73;10.90;;;10.90;99.90;;;;;;4889618;29;20611;-92
2021/11/14 11:43:29;;;;;;;22.10;10.43;;;10.90;99.90;;;;;;4889309;29;20128;-94
2021/11/14 11:46:09;;;;;;;22.38;10.68;;;10.90;99.90;;;;;;4881804;29;20091;-94
2021/11/14 11:48:42;;;;;;;21.23;10.50;;;10.90;99.90;;;;;;4898558;29;20039;-95
2021/11/14 11:51:11;;;;;;;18.75;9.77;;;10.90;99.90;;;;;;4882585;29;20364;-95
2021/11/14 11:53:38;;;;;;;20.05;10.00;;;10.90;99.90;;;;;;4897149;29;20041;-94
2021/11/14 11:56:15;;;;;;;20.83;10.32;;;10.90;99.90;;;;;;4880103;29;20040;-95
2021/11/14 11:58:48;;;;;;;20.63;10.82;;;11.00;99.90;;;;;;4879781;29;20490;-94
2021/11/14 12:01:20;;;;;;;18.35;9.30;;;11.10;99.90;;;;;;4879671;29;20025;-94
2021/11/14 12:03:46;;;;;;;22.35;10.88;;;11.20;99.90;;;;;;4877355;29;20032;-94
2021/11/14 12:06:19;;;;;;;18.98;10.00;;;11.30;99.90;;;;;;4880463;29;20025;-95
2021/11/14 12:08:57;;;;;;;18.73;10.50;;;11.40;99.90;;;;;;4886385;29;20074;-95
2021/11/14 12:11:29;;;;;;;21.15;11.15;;;11.50;99.90;;;;;;4885009;29;20064;-94
2021/11/14 12:13:55;;;;;;;17.17;9.50;;;11.60;99.90;;;;;;4898542;29;20104;-95
2021/11/14 12:16:30;;;;;;;15.27;8.80;;;11.60;99.90;;;;;;4897987;29;20104;-95
2021/11/14 12:18:58;;;;;;;16.73;9.15;;;11.70;99.90;;;;;;4893476;29;20128;-92
2021/11/14 12:21:28;;;;;;;13.75;7.80;;;11.70;99.90;;;;;;4878125;29;20041;-93
2021/11/14 12:24:09;;;;;;;18.77;9.82;;;11.80;99.90;;;;;;4877669;29;20261;-93
2021/11/14 12:26:36;;;;;;;20.52;10.52;;;11.80;99.90;;;;;;4895157;29;20077;-95
2021/11/14 12:29:07;;;;;;;22.52;12.45;;;11.80;99.90;;;;;;4880705;29;20029;-93
2021/11/14 12:31:48;;;;;;;22.58;13.35;;;11.90;99.90;;;;;;4880763;29;20028;-96
2021/11/14 12:34:27;;;;;;;22.35;11.77;;;11.90;99.90;;;;;;4900560;29;20479;-94
2021/11/14 12:39:37;;;;;;;22.58;12.25;;;12.30;99.90;;;;;;5071665;28;20048;-95
2021/11/14 12:42:13;;;;;;;21.65;10.98;;;12.50;99.90;;;;;;5090958;28;20028;-95
2021/11/14 12:44:44;;;;;;;20.40;11.32;;;12.70;99.90;;;;;;5090884;28;20478;-94
2021/11/14 12:47:24;;;;;;;22.27;10.32;;;12.90;99.90;;;;;;5093468;28;20063;-95
2021/11/14 12:49:52;;;;;;;18.70;10.82;;;13.10;99.90;;;;;;5089034;28;20024;-95
2021/11/14 12:54:55;;;;;;;12.77;7.53;;;13.20;99.90;;;;;;5360070;22;20047;-95